createdAt,value
2018-10-11T00:01:09.020Z,90.80
2018-10-11T00:03:36.631Z,91.00
2018-10-11T00:06:04.974Z,91.50
2018-10-11T00:08:32.540Z,91.50
2018-10-11T00:11:00.137Z,91.80
2018-10-11T00:13:27.717Z,92.00
2018-10-11T00:15:55.836Z,92.10
2018-10-11T00:18:23.411Z,92.00
2018-10-11T00:20:50.993Z,92.10
2018-10-11T00:23:19.374Z,92.30
2018-10-11T00:25:47.717Z,92.20
2018-10-11T00:28:15.298Z,92.20
2018-10-11T00:30:42.916Z,92.10
2018-10-11T00:33:10.471Z,92.00
2018-10-11T00:35:38.055Z,91.90
2018-10-11T00:38:05.710Z,91.90
2018-10-11T00:40:33.284Z,91.80
2018-10-11T00:43:00.868Z,91.90
2018-10-11T00:45:28.479Z,91.50
2018-10-11T00:47:56.054Z,91.50
2018-10-11T00:50:23.621Z,91.50
2018-10-11T00:52:51.225Z,91.60
2018-10-11T00:55:19.569Z,92.30
2018-10-11T00:57:47.202Z,92.30
2018-10-11T01:00:14.779Z,91.90
2018-10-11T01:02:42.348Z,91.80
2018-10-11T01:05:09.963Z,91.70
2018-10-11T01:07:37.546Z,91.80
2018-10-11T01:10:05.159Z,91.80
2018-10-11T01:12:32.738Z,91.30
2018-10-11T01:15:01.079Z,91.40
2018-10-11T01:17:28.656Z,91.30
2018-10-11T01:19:56.755Z,91.50
2018-10-11T01:22:25.099Z,91.90
2018-10-11T01:24:52.680Z,91.90
2018-10-11T01:27:20.291Z,91.50
2018-10-11T01:29:47.934Z,91.40
2018-10-11T01:32:15.439Z,91.40
2018-10-11T01:34:43.043Z,91.50
2018-10-11T01:37:10.631Z,91.60
2018-10-11T01:39:38.350Z,91.60
2018-10-11T01:42:05.919Z,92.00
2018-10-11T01:44:34.264Z,91.80
2018-10-11T01:47:01.871Z,91.80
2018-10-11T01:49:29.449Z,91.80
2018-10-11T01:51:57.021Z,91.80
2018-10-11T01:54:24.618Z,91.80
2018-10-11T01:56:52.253Z,92.00
2018-10-11T01:59:20.263Z,92.10
2018-10-11T02:01:47.843Z,92.50
2018-10-11T02:04:16.196Z,92.00
2018-10-11T02:06:43.799Z,91.70
2018-10-11T02:09:12.139Z,91.70
2018-10-11T02:11:39.711Z,91.70
2018-10-11T02:14:07.306Z,91.70
2018-10-11T02:16:34.888Z,91.70
2018-10-11T02:19:03.202Z,91.70
2018-10-11T02:21:30.778Z,91.80
2018-10-11T02:23:58.360Z,91.70
2018-10-11T02:26:26.742Z,91.70
2018-10-11T02:28:55.077Z,91.70
2018-10-11T02:31:22.652Z,91.70
2018-10-11T02:33:50.267Z,91.80
2018-10-11T02:36:17.855Z,91.90
2018-10-11T02:38:45.434Z,92.20
2018-10-11T02:41:13.065Z,91.80
2018-10-11T02:43:40.643Z,91.90
2018-10-11T02:46:08.230Z,92.00
2018-10-11T02:48:35.840Z,92.30
2018-10-11T02:51:03.424Z,92.40
2018-10-11T02:53:31.034Z,92.50
2018-10-11T02:55:59.394Z,92.60
2018-10-11T02:58:54.074Z,92.60
2018-10-11T03:01:21.652Z,92.60
2018-10-11T03:03:49.230Z,92.60
2018-10-11T03:06:17.601Z,92.60
2018-10-11T03:08:45.188Z,92.60
2018-10-11T03:11:12.804Z,92.60
2018-10-11T03:13:40.388Z,92.60
2018-10-11T03:16:07.962Z,92.50
2018-10-11T03:18:35.586Z,92.50
2018-10-11T03:21:03.155Z,92.40
2018-10-11T03:23:30.727Z,92.30
2018-10-11T03:25:58.361Z,92.30
2018-10-11T03:28:25.908Z,91.90
2018-10-11T03:30:53.558Z,91.80
2018-10-11T03:33:21.133Z,91.80
2018-10-11T03:35:48.701Z,91.70
2018-10-11T03:38:16.297Z,91.70
2018-10-11T03:40:43.876Z,91.70
2018-10-11T03:43:13.346Z,91.60
2018-10-11T03:45:40.928Z,91.60
2018-10-11T03:48:08.867Z,91.50
2018-10-11T03:50:36.480Z,91.20
2018-10-11T03:53:04.823Z,91.30
2018-10-11T03:55:32.395Z,91.30
2018-10-11T03:58:00.007Z,91.30
2018-10-11T04:00:27.580Z,91.70
2018-10-11T04:02:55.162Z,91.40
2018-10-11T04:05:22.776Z,91.50
2018-10-11T04:07:51.112Z,91.50
2018-10-11T04:10:18.769Z,91.50
2018-10-11T04:12:46.346Z,91.70
2018-10-11T04:15:13.922Z,92.20
2018-10-11T04:17:42.306Z,92.00
2018-10-11T04:20:09.877Z,91.90
2018-10-11T04:22:37.452Z,92.00
2018-10-11T04:25:05.067Z,92.00
2018-10-11T04:27:32.638Z,92.00
2018-10-11T04:30:00.302Z,92.00
2018-10-11T04:32:27.865Z,92.10
2018-10-11T04:34:55.453Z,92.10
2018-10-11T04:37:23.844Z,91.80
2018-10-11T04:39:51.383Z,91.80
2018-10-11T04:42:19.783Z,91.80
2018-10-11T04:44:47.357Z,91.80
2018-10-11T04:47:14.937Z,91.80
2018-10-11T04:49:42.573Z,91.90
2018-10-11T04:52:10.140Z,91.90
2018-10-11T04:54:37.716Z,92.00
2018-10-11T04:57:05.398Z,92.10
2018-10-11T04:59:32.985Z,92.20
2018-10-11T05:02:00.611Z,92.30
2018-10-11T05:04:28.225Z,92.30
2018-10-11T05:06:56.928Z,92.30
2018-10-11T05:09:24.495Z,92.30
2018-10-11T05:11:52.525Z,92.30
2018-10-11T05:14:20.106Z,92.30
2018-10-11T05:16:52.305Z,92.10
2018-10-11T05:19:20.431Z,92.10
2018-10-11T05:21:48.004Z,91.70
2018-10-11T05:24:15.572Z,91.70
2018-10-11T05:26:43.984Z,91.60
2018-10-11T05:29:11.571Z,91.60
2018-10-11T05:31:39.146Z,91.60
2018-10-11T05:34:06.756Z,91.60
2018-10-11T05:36:34.324Z,91.70
2018-10-11T05:39:01.975Z,91.50
2018-10-11T05:41:29.556Z,91.60
2018-10-11T05:43:57.134Z,91.90
2018-10-11T05:46:25.681Z,92.10
2018-10-11T05:48:53.251Z,92.20
2018-10-11T05:51:20.821Z,92.30
2018-10-11T05:53:48.849Z,92.40
2018-10-11T05:56:16.425Z,92.50
2018-10-11T05:58:44.018Z,92.60
2018-10-11T06:01:11.675Z,92.70
2018-10-11T06:03:39.272Z,92.70
2018-10-11T06:06:06.862Z,92.70
2018-10-11T06:08:34.437Z,92.70
2018-10-11T06:11:02.015Z,92.70
2018-10-11T06:13:29.666Z,92.60
2018-10-11T06:15:58.008Z,92.60
2018-10-11T06:18:25.593Z,92.60
2018-10-11T06:20:54.013Z,92.80
2018-10-11T06:23:21.584Z,92.80
2018-10-11T06:25:49.166Z,92.40
2018-10-11T06:28:16.824Z,92.30
2018-10-11T06:30:44.402Z,92.30
2018-10-11T06:33:11.980Z,92.30
2018-10-11T06:35:39.631Z,92.30
2018-10-11T06:38:07.181Z,92.70
2018-10-11T06:40:34.754Z,92.30
2018-10-11T06:43:02.378Z,92.30
2018-10-11T06:45:29.961Z,92.40
2018-10-11T06:47:57.536Z,92.70
2018-10-11T06:52:57.795Z,92.50
2018-10-11T06:55:25.367Z,92.10
2018-10-11T06:57:54.735Z,92.00
2018-10-11T07:00:22.315Z,92.00
2018-10-11T07:02:49.898Z,92.00
2018-10-11T07:05:18.294Z,92.00
2018-10-11T07:07:45.866Z,92.00
2018-10-11T07:10:13.442Z,92.00
2018-10-11T07:12:41.042Z,92.00
2018-10-11T07:15:08.624Z,92.00
2018-10-11T07:17:36.260Z,91.90
2018-10-11T07:20:03.836Z,92.00
2018-10-11T07:22:32.175Z,92.50
2018-10-11T07:24:59.873Z,92.10
2018-10-11T07:27:27.443Z,91.80
2018-10-11T07:29:55.790Z,91.70
2018-10-11T07:32:23.416Z,91.70
2018-10-11T07:34:51.033Z,91.70
2018-10-11T07:37:18.602Z,91.70
2018-10-11T07:39:46.646Z,91.70
2018-10-11T07:42:14.224Z,91.80
2018-10-11T07:44:41.802Z,91.90
2018-10-11T07:47:09.957Z,92.10
2018-10-11T07:49:37.555Z,92.20
2018-10-11T07:52:05.135Z,92.00
2018-10-11T07:54:33.253Z,92.00
2018-10-11T07:57:00.829Z,91.40
2018-10-11T07:59:28.408Z,91.50
2018-10-11T08:01:56.777Z,91.80
2018-10-11T08:04:25.126Z,91.90
2018-10-11T08:06:53.570Z,91.90
2018-10-11T08:09:21.144Z,92.00
2018-10-11T08:11:49.873Z,92.00
2018-10-11T08:14:18.555Z,92.00
2018-10-11T08:16:46.270Z,92.10
2018-10-11T08:19:13.947Z,92.30
2018-10-11T08:21:42.152Z,92.40
2018-10-11T08:24:10.434Z,92.70
2018-10-11T08:26:38.741Z,92.40
2018-10-11T08:29:06.282Z,92.40
2018-10-11T08:31:33.885Z,92.40
2018-10-11T08:34:01.536Z,92.40
2018-10-11T08:36:29.077Z,92.40
2018-10-11T08:38:56.645Z,92.50
2018-10-11T08:41:24.246Z,92.50
2018-10-11T08:43:51.841Z,92.50
2018-10-11T08:46:19.459Z,92.40
2018-10-11T08:48:47.027Z,92.40
2018-10-11T08:51:14.610Z,92.30
2018-10-11T08:53:42.362Z,92.30
2018-10-11T08:56:09.834Z,92.10
2018-10-11T08:58:37.641Z,92.00
2018-10-11T09:01:07.058Z,92.00
2018-10-11T09:03:34.726Z,92.00
2018-10-11T09:06:02.214Z,91.80
2018-10-11T09:08:29.866Z,91.60
2018-10-11T09:10:57.536Z,91.50
2018-10-11T09:13:25.027Z,91.20
2018-10-11T09:15:53.167Z,91.10
2018-10-11T09:18:20.732Z,90.90
2018-10-11T09:20:48.313Z,90.80
2018-10-11T09:23:16.430Z,91.10
2018-10-11T09:25:43.988Z,90.70
2018-10-11T09:28:11.557Z,90.50
2018-10-11T09:30:39.219Z,90.30
2018-10-11T09:33:06.754Z,90.20
2018-10-11T09:35:34.705Z,90.00
2018-10-11T09:38:02.321Z,89.80
2018-10-11T09:40:30.669Z,88.50
2018-10-11T09:42:58.269Z,88.50
2018-10-11T09:45:25.846Z,88.30
2018-10-11T09:47:53.419Z,87.90
2018-10-11T09:50:21.064Z,87.70
2018-10-11T09:52:48.638Z,87.70
2018-10-11T09:55:16.212Z,87.40
2018-10-11T09:57:43.833Z,87.30
2018-10-11T10:00:11.400Z,87.10
2018-10-11T10:02:38.972Z,86.50
2018-10-11T10:05:06.573Z,86.10
2018-10-11T10:07:34.138Z,85.90
2018-10-11T10:10:02.632Z,85.30
2018-10-11T10:12:30.900Z,84.50
2018-10-11T10:14:58.854Z,84.50
2018-10-11T10:17:26.470Z,84.50
2018-10-11T10:19:54.804Z,84.00
2018-10-11T10:22:22.369Z,84.00
2018-10-11T10:24:50.026Z,83.30
2018-10-11T10:27:18.642Z,82.90
2018-10-11T10:29:46.099Z,82.30
2018-10-11T10:32:14.872Z,81.60
2018-10-11T10:34:42.439Z,80.60
2018-10-11T10:37:10.005Z,80.30
2018-10-11T10:39:38.668Z,79.80
2018-10-11T10:42:06.270Z,79.30
2018-10-11T10:44:34.603Z,80.30
2018-10-11T10:47:02.226Z,79.60
2018-10-11T10:49:29.799Z,79.60
2018-10-11T10:51:57.372Z,79.20
2018-10-11T10:54:25.031Z,78.90
2018-10-11T10:56:52.559Z,78.50
2018-10-11T10:59:20.130Z,78.10
2018-10-11T11:01:48.560Z,77.80
2018-10-11T11:04:16.126Z,77.60
2018-10-11T11:06:43.700Z,77.10
2018-10-11T11:09:11.339Z,74.80
2018-10-11T11:11:38.908Z,73.20
2018-10-11T11:14:06.474Z,72.30
2018-10-11T11:16:34.802Z,72.00
2018-10-11T11:19:02.478Z,71.70
2018-10-11T11:21:30.280Z,71.80
2018-10-11T11:23:57.899Z,71.50
2018-10-11T11:26:25.468Z,71.10
2018-10-11T11:28:53.035Z,71.30
2018-10-11T11:31:20.669Z,71.20
2018-10-11T11:33:49.010Z,70.00
2018-10-11T11:36:16.577Z,70.00
2018-10-11T11:38:44.197Z,69.70
2018-10-11T11:41:11.772Z,68.90
2018-10-11T11:43:39.348Z,66.50
2018-10-11T11:46:06.980Z,66.70
2018-10-11T11:48:34.546Z,66.80
2018-10-11T11:51:02.121Z,66.90
2018-10-11T11:53:29.738Z,66.80
2018-10-11T11:55:58.065Z,66.90
2018-10-11T11:58:25.633Z,66.80
2018-10-11T12:00:53.264Z,66.70
2018-10-11T12:03:20.879Z,66.50
2018-10-11T12:05:48.443Z,66.30
2018-10-11T12:08:17.114Z,65.90
2018-10-11T12:10:44.702Z,65.60
2018-10-11T12:13:12.270Z,65.20
2018-10-11T12:15:40.664Z,64.60
2018-10-11T12:18:08.230Z,64.50
2018-10-11T12:20:35.802Z,64.40
2018-10-11T12:23:03.422Z,64.40
2018-10-11T12:25:30.981Z,64.10
2018-10-11T12:27:58.576Z,63.30
2018-10-11T12:30:26.967Z,62.90
2018-10-11T12:32:54.533Z,62.90
2018-10-11T12:35:22.104Z,62.10
2018-10-11T12:37:49.726Z,61.30
2018-10-11T12:40:17.286Z,60.50
2018-10-11T12:42:44.842Z,60.20
2018-10-11T12:45:13.816Z,60.30
2018-10-11T12:47:41.362Z,59.60
2018-10-11T12:50:08.994Z,59.60
2018-10-11T12:52:36.531Z,58.90
2018-10-11T12:55:04.948Z,57.90
2018-10-11T12:57:32.435Z,57.90
2018-10-11T13:00:00.087Z,57.60
2018-10-11T13:02:27.651Z,57.40
2018-10-11T13:04:55.218Z,57.30
2018-10-11T13:07:23.700Z,57.40
2018-10-11T13:09:51.272Z,57.40
2018-10-11T13:12:18.834Z,56.80
2018-10-11T13:14:46.444Z,55.80
2018-10-11T13:17:14.011Z,55.80
2018-10-11T13:19:41.569Z,55.70
2018-10-11T13:22:09.183Z,56.00
2018-10-11T13:24:40.589Z,56.10
2018-10-11T13:27:04.319Z,55.80
2018-10-11T13:29:32.694Z,54.40
2018-10-11T13:32:00.254Z,54.60
2018-10-11T13:34:27.824Z,54.20
2018-10-11T13:36:55.893Z,54.30
2018-10-11T13:39:23.473Z,54.00
2018-10-11T13:41:51.109Z,53.80
2018-10-11T13:44:19.068Z,53.80
2018-10-11T13:46:46.625Z,53.20
2018-10-11T13:49:14.179Z,53.10
2018-10-11T13:51:42.361Z,52.60
2018-10-11T13:54:09.923Z,52.40
2018-10-11T13:56:37.479Z,52.30
2018-10-11T13:59:08.646Z,52.40
2018-10-11T14:01:33.113Z,52.00
2018-10-11T14:04:00.681Z,52.00
2018-10-11T14:06:29.342Z,51.50
2018-10-11T14:08:56.901Z,51.40
2018-10-11T14:11:24.465Z,51.50
2018-10-11T14:13:52.558Z,51.60
2018-10-11T14:16:20.119Z,51.30
2018-10-11T14:18:47.685Z,51.30
2018-10-11T14:21:15.997Z,50.90
2018-10-11T14:23:44.385Z,50.70
2018-10-11T14:26:11.900Z,50.60
2018-10-11T14:28:39.530Z,50.40
2018-10-11T14:31:07.088Z,50.50
2018-10-11T14:33:34.652Z,50.10
2018-10-11T14:36:02.337Z,50.20
2018-10-11T14:38:29.903Z,50.40
2018-10-11T14:40:57.466Z,50.80
2018-10-11T14:43:25.125Z,50.80
2018-10-11T14:45:53.404Z,50.40
2018-10-11T14:48:20.964Z,50.40
2018-10-11T14:50:48.611Z,50.50
2018-10-11T14:53:16.932Z,50.50
2018-10-11T14:55:44.466Z,50.50
2018-10-11T14:58:12.103Z,50.10
2018-10-11T15:00:39.660Z,49.90
2018-10-11T15:03:07.281Z,50.10
2018-10-11T15:05:34.930Z,50.20
2018-10-11T15:08:02.412Z,50.50
2018-10-11T15:10:30.763Z,50.80
2018-10-11T15:12:58.362Z,50.80
2018-10-11T15:15:25.920Z,50.90
2018-10-11T15:17:54.318Z,51.00
2018-10-11T15:20:21.905Z,50.90
2018-10-11T15:22:49.470Z,51.00
2018-10-11T15:25:17.035Z,51.00
2018-10-11T15:27:44.652Z,50.50
2018-10-11T15:30:13.284Z,50.70
2018-10-11T15:32:40.846Z,50.60
2018-10-11T15:35:08.486Z,50.30
2018-10-11T15:37:36.776Z,50.40
2018-10-11T15:40:04.376Z,50.40
2018-10-11T15:42:32.538Z,50.30
2018-10-11T15:45:00.131Z,50.20
2018-10-11T15:47:27.661Z,50.30
2018-10-11T15:49:55.276Z,50.30
2018-10-11T15:52:22.876Z,50.00
2018-10-11T15:54:50.426Z,50.10
2018-10-11T15:57:18.075Z,50.20
2018-10-11T15:59:45.635Z,50.30
2018-10-11T16:02:13.194Z,50.40
2018-10-11T16:04:40.800Z,50.30
2018-10-11T16:07:08.363Z,50.20
2018-10-11T16:09:35.929Z,50.10
2018-10-11T16:12:04.200Z,50.10
2018-10-11T16:14:31.646Z,50.40
2018-10-11T16:16:59.213Z,50.70
2018-10-11T16:19:26.817Z,50.60
2018-10-11T16:21:54.379Z,50.90
2018-10-11T16:24:21.936Z,51.30
2018-10-11T16:26:50.873Z,52.10
2018-10-11T16:29:18.438Z,52.00
2018-10-11T16:31:46.060Z,52.50
2018-10-11T16:34:14.814Z,53.10
2018-10-11T16:36:42.366Z,53.60
2018-10-11T16:39:09.976Z,54.00
2018-10-11T16:41:38.025Z,54.40
2018-10-11T16:44:06.346Z,55.20
2018-10-11T16:46:33.907Z,54.80
2018-10-11T16:49:01.894Z,55.10
2018-10-11T16:51:29.470Z,55.60
2018-10-11T16:53:57.041Z,56.10
2018-10-11T16:56:25.403Z,56.60
2018-10-11T16:58:52.958Z,57.00
2018-10-11T17:01:20.524Z,57.60
2018-10-11T17:03:48.137Z,57.40
2018-10-11T17:06:16.475Z,58.00
2018-10-11T17:08:44.032Z,58.00
2018-10-11T17:11:12.826Z,58.30
2018-10-11T17:13:44.572Z,58.90
2018-10-11T17:16:10.606Z,58.80
2018-10-11T17:18:38.676Z,59.10
2018-10-11T17:21:06.242Z,59.40
2018-10-11T17:23:33.825Z,59.80
2018-10-11T17:26:01.986Z,60.10
2018-10-11T17:28:29.544Z,60.50
2018-10-11T17:30:57.118Z,61.00
2018-10-11T17:33:24.751Z,61.40
2018-10-11T17:35:52.325Z,61.70
2018-10-11T17:38:19.890Z,61.90
2018-10-11T17:40:47.530Z,62.20
2018-10-11T17:43:15.095Z,62.50
2018-10-11T17:45:42.661Z,62.80
2018-10-11T17:48:10.628Z,62.40
2018-10-11T17:50:38.193Z,62.80
2018-10-11T17:53:05.751Z,63.00
2018-10-11T17:55:33.374Z,63.90
2018-10-11T17:58:00.940Z,64.00
2018-10-11T18:00:28.502Z,63.50
2018-10-11T18:02:56.113Z,63.60
2018-10-11T18:05:23.669Z,63.70
2018-10-11T18:07:51.258Z,64.10
2018-10-11T18:10:18.882Z,64.20
2018-10-11T18:12:46.446Z,64.50
2018-10-11T18:15:14.011Z,64.10
2018-10-11T18:17:41.976Z,64.30
2018-10-11T18:20:09.560Z,64.60
2018-10-11T18:22:37.134Z,64.80
2018-10-11T18:25:04.790Z,64.80
2018-10-11T18:27:32.354Z,64.90
2018-10-11T18:29:59.925Z,65.10
2018-10-11T18:32:28.350Z,64.90
2018-10-11T18:34:55.902Z,64.80
2018-10-11T18:37:23.469Z,65.00
2018-10-11T18:39:51.054Z,65.20
2018-10-11T18:42:18.917Z,65.40
2018-10-11T18:44:47.361Z,65.50
2018-10-11T18:47:15.669Z,65.60
2018-10-11T18:49:43.222Z,65.60
2018-10-11T18:52:10.831Z,65.70
2018-10-11T18:54:38.389Z,65.80
2018-10-11T18:57:05.947Z,66.00
2018-10-11T18:59:33.565Z,66.30
2018-10-11T19:02:01.124Z,66.40
2018-10-11T19:04:28.685Z,66.60
2018-10-11T19:06:56.683Z,66.00
2018-10-11T19:09:24.257Z,66.10
2018-10-11T19:11:51.825Z,66.30
2018-10-11T19:14:19.480Z,66.40
2018-10-11T19:16:47.037Z,66.70
2018-10-11T19:19:14.596Z,66.80
2018-10-11T19:21:43.373Z,67.10
2018-10-11T19:24:10.957Z,67.30
2018-10-11T19:26:38.517Z,67.70
2018-10-11T19:29:06.156Z,68.00
2018-10-11T19:31:33.726Z,68.20
2018-10-11T19:34:01.278Z,68.50
2018-10-11T19:36:28.941Z,68.80
2018-10-11T19:38:56.923Z,69.20
2018-10-11T19:41:24.482Z,69.50
2018-10-11T19:43:52.078Z,69.80
2018-10-11T19:46:19.647Z,70.10
2018-10-11T19:48:47.263Z,70.30
2018-10-11T19:51:14.828Z,70.70
2018-10-11T19:53:42.394Z,70.90
2018-10-11T19:56:10.058Z,71.30
2018-10-11T19:58:37.621Z,71.50
2018-10-11T20:01:05.184Z,71.70
2018-10-11T20:03:32.837Z,71.90
2018-10-11T20:06:00.451Z,72.20
2018-10-11T20:08:28.009Z,72.40
2018-10-11T20:10:55.591Z,72.50
2018-10-11T20:13:23.161Z,72.60
2018-10-11T20:15:50.722Z,72.70
2018-10-11T20:18:18.345Z,72.80
2018-10-11T20:20:45.907Z,72.80
2018-10-11T20:23:16.147Z,72.90
2018-10-11T20:25:44.530Z,73.10
2018-10-11T20:28:12.097Z,73.00
2018-10-11T20:30:39.678Z,73.10
2018-10-11T20:33:07.304Z,73.10
2018-10-11T20:35:34.862Z,73.10
2018-10-11T20:38:02.426Z,73.10
2018-10-11T20:40:31.906Z,73.20
2018-10-11T20:42:59.495Z,73.20
2018-10-11T20:45:27.848Z,73.30
2018-10-11T20:47:55.483Z,73.30
2018-10-11T20:50:23.065Z,73.30
2018-10-11T20:52:50.626Z,73.30
2018-10-11T20:55:18.789Z,73.20
2018-10-11T20:57:46.584Z,73.10
2018-10-11T21:00:14.148Z,73.30
2018-10-11T21:02:41.801Z,72.80
2018-10-11T21:05:09.379Z,72.80
2018-10-11T21:07:37.721Z,73.00
2018-10-11T21:10:05.812Z,73.00
2018-10-11T21:12:33.372Z,73.10
2018-10-11T21:15:00.944Z,73.10
2018-10-11T21:17:28.562Z,73.20
2018-10-11T21:19:56.161Z,73.30
2018-10-11T21:22:23.708Z,73.40
2018-10-11T21:24:51.365Z,73.50
2018-10-11T21:27:18.927Z,73.60
2018-10-11T21:29:46.490Z,74.10
2018-10-11T21:32:14.170Z,73.40
2018-10-11T21:34:41.739Z,73.70
2018-10-11T21:37:09.302Z,74.10
2018-10-11T21:39:36.919Z,73.60
2018-10-11T21:42:04.478Z,73.70
2018-10-11T21:44:32.042Z,74.10
2018-10-11T21:46:59.653Z,74.40
2018-10-11T21:49:27.215Z,74.80
2018-10-11T21:51:54.780Z,74.20
2018-10-11T21:54:23.177Z,75.50
2018-10-11T21:56:50.746Z,75.50
2018-10-11T21:59:18.315Z,75.80
2018-10-11T22:01:45.925Z,75.90
2018-10-11T22:04:13.495Z,76.10
2018-10-11T22:06:41.056Z,76.10
2018-10-11T22:09:08.652Z,76.20
2018-10-11T22:11:36.214Z,76.40
2018-10-11T22:14:04.636Z,76.60
2018-10-11T22:16:32.494Z,76.60
2018-10-11T22:19:00.063Z,76.70
2018-10-11T22:21:27.675Z,76.80
2018-10-11T22:23:56.008Z,77.00
2018-10-11T22:26:23.580Z,77.00
2018-10-11T22:28:51.174Z,77.20
2018-10-11T22:31:18.743Z,77.40
2018-10-11T22:33:46.311Z,78.00
2018-10-11T22:36:13.911Z,77.50
2018-10-11T22:38:41.487Z,77.50
2018-10-11T22:41:09.050Z,77.60
2018-10-11T22:43:36.669Z,77.70
2018-10-11T22:46:04.238Z,77.80
2018-10-11T22:48:31.812Z,78.20
2018-10-11T22:50:59.684Z,77.70
2018-10-11T22:53:27.244Z,77.70
2018-10-11T22:55:54.821Z,77.80
2018-10-11T22:58:22.845Z,77.80
2018-10-11T23:00:50.415Z,77.80
2018-10-11T23:03:17.986Z,77.70
2018-10-11T23:05:45.599Z,77.50
2018-10-11T23:08:13.162Z,76.70
2018-10-11T23:10:41.496Z,76.40
2018-10-11T23:13:09.089Z,76.40
2018-10-11T23:15:36.646Z,76.40
2018-10-11T23:18:05.106Z,76.60
2018-10-11T23:20:32.668Z,77.00
2018-10-11T23:23:00.225Z,76.40
2018-10-11T23:25:28.082Z,76.40
2018-10-11T23:27:55.662Z,76.50
2018-10-11T23:30:23.226Z,76.50
2018-10-11T23:32:50.828Z,76.50
2018-10-11T23:35:18.388Z,76.50
2018-10-11T23:37:46.707Z,76.50
2018-10-11T23:40:14.803Z,76.40
2018-10-11T23:42:42.399Z,76.30
2018-10-11T23:45:10.726Z,76.50
2018-10-11T23:47:38.335Z,76.50
2018-10-11T23:50:05.898Z,75.90
2018-10-11T23:52:34.231Z,76.70
2018-10-11T23:55:01.826Z,75.90
2018-10-11T23:57:29.384Z,75.90
2018-10-11T23:59:56.968Z,75.80
